Interior, SD (57750)

4:49 PM MDT on August 28, 2016 (GMT -0600)
| | Change Station

Elev -9999 ft 0.00 °N, 0.00 °E | Updated

Clear
Clear
86 °F
Feels Like 86 °F
N
3
Wind Variable Wind from ESE
Gusts mph

Today
High -- | Low -- °F
--% Chance of Precip.
Yesterday
High -- | Low -- °F
Precip. -- in
Pressure 29.83 in
Visibility 10.0 miles
Clouds Clear
Dew Point 49 °F
Humidity 29%
Rainfall --
Snow Depth Not available.
6:07 AM 7:29 PM
Waning Crescent, 13% visible
METAR KPHP 282155Z AUTO 21006KT 10SM CLR 35/07 A2991 RMK AO2 SLP102 T03500072
Pressure 29.83 in
Visibility 10.0 miles
Clouds Clear
Dew Point 49 °F
Humidity 29%
Rainfall --
Snow Depth Not available.
6:07 AM 7:29 PM
Waning Crescent, 13% visible
METAR KPHP 282155Z AUTO 21006KT 10SM CLR 35/07 A2991 RMK AO2 SLP102 T03500072

10-Day Weather Forecast

Almanac

Astronomy

Aug. 28, 2016 Rise Set
Actual Time
Civil Twilight
Nautical Twilight
Astronomical Twilight
Moon
Length of Visible Light
Length of Day
Tomorrow will be .
, % of the Moon is Illuminated

Today's Extremes

State Highs State Lows

Community

WunderPhotos

Upload Photos

1,935,705 photos uploaded!

WunderBlog® & News

Nearby

Air Quality

  Air Quality AQ Index Pollutant
Not available.

Snow Depth

Station Depth Elevation

Earthquake Activity

City Distance Mag. Time & Date
Minimum magnitude displayed is 2.5.

Coastal Water Temperatures

Place Temperature

Stations

Nearby Weather Stations

Station Location Temp. Windchill Dew Point Humidity Wind Precip. Elev Updated Type
                   

Watches & Warnings

There are currently no watches in effect.